Time;durP1;ratioP1;P1;durP2;ratioP2;P2;SDS_P1;SDS_P2;PMS_P1;PMS_P2;Temp;Humidity;BMP_temperature;BMP_pressure;BME280_temperature;BME280_humidity;BME280_pressure;Samples;Min_cycle;Max_cycle;Signal;HPM_P1;HPM_P2
2021/08/13 00:00:24;;;;;;;11.47;10.30;;;21.40;1.00;;;;;;5086936;28;20195;-59
2021/08/13 00:02:49;;;;;;;10.60;9.70;;;21.30;1.00;;;;;;5090134;28;20194;-59
2021/08/13 00:05:15;;;;;;;10.20;9.20;;;21.30;1.00;;;;;;5087238;28;22370;-60
2021/08/13 00:07:40;;;;;;;10.67;9.77;;;21.20;1.00;;;;;;5085820;28;20248;-59
2021/08/13 00:10:07;;;;;;;10.37;9.37;;;21.30;1.00;;;;;;5080035;28;20230;-59
2021/08/13 00:12:33;;;;;;;10.67;9.57;;;21.20;1.00;;;;;;5083356;28;20190;-58
2021/08/13 00:14:59;;;;;;;10.70;9.60;;;21.20;1.00;;;;;;5082567;28;20829;-59
2021/08/13 00:17:26;;;;;;;11.40;10.27;;;21.10;1.00;;;;;;5077857;28;20215;-59
2021/08/13 00:19:51;;;;;;;9.60;8.57;;;21.10;1.00;;;;;;5087950;28;20452;-59
2021/08/13 00:22:17;;;;;;;11.20;10.20;;;21.20;1.00;;;;;;5084761;28;20463;-59
2021/08/13 00:24:44;;;;;;;11.10;10.10;;;21.20;1.00;;;;;;5087866;28;20190;-58
2021/08/13 00:27:10;;;;;;;11.63;10.60;;;21.20;1.00;;;;;;5090922;28;20183;-60
2021/08/13 00:29:35;;;;;;;10.70;9.80;;;21.10;1.00;;;;;;5076792;28;20482;-58
2021/08/13 00:32:01;;;;;;;10.57;9.50;;;21.20;1.00;;;;;;5090789;28;20193;-60
2021/08/13 00:34:26;;;;;;;10.97;10.00;;;21.10;1.00;;;;;;5079707;28;20217;-60
2021/08/13 00:36:52;;;;;;;11.33;10.33;;;21.00;1.00;;;;;;5083664;28;20653;-60
2021/08/13 00:39:17;;;;;;;11.23;10.00;;;21.00;1.00;;;;;;5085973;28;20236;-58
2021/08/13 00:41:43;;;;;;;11.37;10.37;;;21.10;1.00;;;;;;5077173;28;20229;-58
2021/08/13 00:44:08;;;;;;;12.00;9.90;;;21.00;1.00;;;;;;5081619;28;20252;-59
2021/08/13 00:46:34;;;;;;;9.80;9.00;;;21.10;1.00;;;;;;5086248;28;20191;-59
2021/08/13 00:49:00;;;;;;;11.03;9.97;;;21.00;1.00;;;;;;5077600;28;20301;-60
2021/08/13 00:51:25;;;;;;;10.63;9.53;;;21.00;1.00;;;;;;5073642;28;20187;-60
2021/08/13 00:53:51;;;;;;;10.83;9.77;;;21.00;1.00;;;;;;5085022;28;20191;-58
2021/08/13 00:56:17;;;;;;;10.83;9.83;;;20.90;1.00;;;;;;5090817;28;20194;-59
2021/08/13 00:58:43;;;;;;;10.40;9.50;;;20.90;1.00;;;;;;5090642;28;20922;-59
2021/08/13 01:01:10;;;;;;;10.30;9.33;;;20.80;1.00;;;;;;5079728;28;20215;-59
2021/08/13 01:03:37;;;;;;;11.20;9.40;;;20.80;1.00;;;;;;5081687;28;20255;-59
2021/08/13 01:06:02;;;;;;;10.73;9.40;;;20.80;1.00;;;;;;5086132;28;20806;-58
2021/08/13 01:08:28;;;;;;;10.70;9.60;;;20.70;1.00;;;;;;5078148;28;20527;-60
2021/08/13 01:11:04;;;;;;;11.17;10.23;;;20.70;1.00;;;;;;5082741;28;20328;-59
2021/08/13 01:13:54;;;;;;;10.77;9.80;;;20.70;1.00;;;;;;5087966;28;20194;-59
2021/08/13 01:16:21;;;;;;;10.80;9.10;;;20.70;1.00;;;;;;5089793;28;20814;-58
2021/08/13 01:18:55;;;;;;;10.80;9.87;;;20.70;1.00;;;;;;5089498;28;20918;-61
2021/08/13 01:21:38;;;;;;;10.07;9.07;;;20.70;1.00;;;;;;5080971;28;20476;-60
2021/08/13 01:24:18;;;;;;;10.07;9.20;;;20.60;1.00;;;;;;5082819;28;20528;-60
2021/08/13 01:26:56;;;;;;;10.30;9.30;;;20.50;1.00;;;;;;5072480;28;20489;-59
2021/08/13 01:29:47;;;;;;;11.97;9.67;;;20.50;1.00;;;;;;5087975;28;20927;-58
2021/08/13 01:32:12;;;;;;;11.43;10.33;;;20.50;1.00;;;;;;5075331;28;20532;-58
2021/08/13 01:35:07;;;;;;;10.60;9.70;;;20.50;1.00;;;;;;5088744;28;20532;-60
2021/08/13 01:37:36;;;;;;;10.67;9.67;;;20.50;1.00;;;;;;5076725;28;20179;-59
2021/08/13 01:40:03;;;;;;;12.70;10.53;;;20.50;1.00;;;;;;5087640;28;20464;-59
2021/08/13 01:42:31;;;;;;;10.30;9.30;;;20.50;1.00;;;;;;5091074;28;21181;-59
2021/08/13 01:44:58;;;;;;;10.40;9.50;;;20.50;1.00;;;;;;5080641;28;20780;-58
2021/08/13 01:47:24;;;;;;;10.53;9.60;;;20.50;1.00;;;;;;5088942;28;20532;-60
2021/08/13 01:49:52;;;;;;;10.93;9.83;;;20.40;1.00;;;;;;5088050;28;20480;-58
2021/08/13 01:52:18;;;;;;;13.73;10.30;;;20.40;1.00;;;;;;5086561;28;20446;-60
2021/08/13 01:54:44;;;;;;;9.87;8.90;;;20.50;1.00;;;;;;5091009;28;20443;-58
2021/08/13 01:57:11;;;;;;;11.03;10.00;;;20.40;1.00;;;;;;5092173;28;20957;-58
2021/08/13 01:59:37;;;;;;;10.40;9.40;;;20.40;1.00;;;;;;5075522;28;20499;-59
2021/08/13 02:02:02;;;;;;;9.53;8.63;;;20.40;1.00;;;;;;5089062;28;20444;-59
2021/08/13 02:04:28;;;;;;;10.10;9.20;;;20.40;1.00;;;;;;5092749;28;20444;-59
2021/08/13 02:06:55;;;;;;;10.23;9.20;;;20.30;1.00;;;;;;5090789;28;20183;-59
2021/08/13 02:09:21;;;;;;;10.67;9.70;;;20.20;1.00;;;;;;5089356;28;20531;-60
2021/08/13 02:11:46;;;;;;;12.37;9.43;;;20.30;1.00;;;;;;5083867;28;20449;-58
2021/08/13 02:14:13;;;;;;;12.30;9.87;;;20.30;1.00;;;;;;5087872;28;20548;-57
2021/08/13 02:16:42;;;;;;;10.20;9.30;;;20.20;1.00;;;;;;5078601;28;20292;-60
2021/08/13 02:19:34;;;;;;;11.13;10.03;;;20.20;1.00;;;;;;5089870;28;20786;-58
2021/08/13 02:22:00;;;;;;;11.93;10.17;;;20.20;1.00;;;;;;5044222;28;20958;-59
2021/08/13 02:24:26;;;;;;;9.83;8.93;;;20.30;1.00;;;;;;5087924;28;20795;-59
2021/08/13 02:26:52;;;;;;;10.47;9.47;;;20.30;1.00;;;;;;5082133;28;20444;-59
2021/08/13 02:29:17;;;;;;;10.60;9.60;;;20.30;1.00;;;;;;5083506;28;20203;-59
2021/08/13 02:31:43;;;;;;;10.87;9.77;;;20.20;1.00;;;;;;5086387;28;20447;-60
2021/08/13 02:34:09;;;;;;;10.93;9.90;;;20.10;1.00;;;;;;5076362;28;20541;-59
2021/08/13 02:36:50;;;;;;;10.90;9.90;;;20.10;1.00;;;;;;5087950;28;20179;-60
2021/08/13 02:39:26;;;;;;;12.90;11.70;;;20.10;1.00;;;;;;5078878;28;20494;-59
2021/08/13 02:41:56;;;;;;;10.23;9.33;;;20.10;1.00;;;;;;5086081;28;20436;-59
2021/08/13 02:44:22;;;;;;;10.70;9.70;;;20.10;1.00;;;;;;5090051;28;20436;-59
2021/08/13 02:46:59;;;;;;;11.17;10.17;;;20.20;1.00;;;;;;5082073;28;21267;-59
2021/08/13 02:49:27;;;;;;;10.80;9.80;;;20.30;1.00;;;;;;5088135;28;20472;-60
2021/08/13 02:51:57;;;;;;;9.67;8.77;;;20.20;1.00;;;;;;5073254;28;20480;-59
2021/08/13 02:54:25;;;;;;;11.30;9.60;;;20.20;1.00;;;;;;5085643;28;20421;-59
2021/08/13 02:56:54;;;;;;;10.60;9.60;;;20.20;1.00;;;;;;5089265;28;20448;-58
2021/08/13 02:59:21;;;;;;;11.03;9.93;;;20.20;1.00;;;;;;5084095;28;20448;-58
2021/08/13 03:01:49;;;;;;;11.23;8.90;;;20.20;1.00;;;;;;5079472;28;20882;-59
2021/08/13 03:04:14;;;;;;;10.83;9.73;;;20.10;1.00;;;;;;5085163;28;20445;-58
2021/08/13 03:06:42;;;;;;;10.50;9.50;;;20.20;1.00;;;;;;5081739;28;20452;-59
2021/08/13 03:09:09;;;;;;;11.10;10.10;;;20.10;1.00;;;;;;5086680;28;20298;-57
2021/08/13 03:11:38;;;;;;;10.57;9.57;;;20.30;1.00;;;;;;5080120;28;20433;-60
2021/08/13 03:14:04;;;;;;;10.40;9.50;;;20.30;1.00;;;;;;5086515;28;20525;-59
2021/08/13 03:16:33;;;;;;;10.93;9.90;;;20.20;1.00;;;;;;5082668;28;20483;-59
2021/08/13 03:18:59;;;;;;;10.47;9.50;;;20.30;1.00;;;;;;5086831;28;20514;-59
2021/08/13 03:21:25;;;;;;;9.50;8.70;;;20.20;1.00;;;;;;5085154;28;20444;-59
2021/08/13 03:23:52;;;;;;;10.23;9.20;;;20.20;1.00;;;;;;5089321;28;20798;-59
2021/08/13 03:26:18;;;;;;;10.10;9.13;;;20.20;1.00;;;;;;5078727;28;20457;-59
2021/08/13 03:28:43;;;;;;;9.83;8.83;;;20.20;1.00;;;;;;5082802;28;20452;-59
2021/08/13 03:31:09;;;;;;;10.93;9.90;;;20.20;1.00;;;;;;5079601;28;20190;-59
2021/08/13 03:33:35;;;;;;;9.87;9.00;;;20.20;1.00;;;;;;5086205;28;20178;-59
2021/08/13 03:36:01;;;;;;;10.70;9.70;;;20.20;1.00;;;;;;5081669;28;20171;-59
2021/08/13 03:38:26;;;;;;;10.50;9.40;;;20.10;1.00;;;;;;5089416;28;20918;-58
2021/08/13 03:40:52;;;;;;;9.30;8.50;;;20.10;1.00;;;;;;5079558;28;20648;-59
2021/08/13 03:43:18;;;;;;;10.93;9.87;;;20.10;1.00;;;;;;5083333;28;20265;-58
2021/08/13 03:45:43;;;;;;;10.30;9.40;;;20.20;1.00;;;;;;5084312;28;20236;-58
2021/08/13 03:48:09;;;;;;;10.77;9.80;;;20.10;1.00;;;;;;5090688;28;20232;-59
2021/08/13 03:50:35;;;;;;;11.10;10.00;;;20.10;1.00;;;;;;5090464;28;20183;-59
2021/08/13 03:53:00;;;;;;;9.93;9.13;;;20.10;1.00;;;;;;5089694;28;20708;-60
2021/08/13 03:55:26;;;;;;;10.07;9.07;;;20.00;1.00;;;;;;5084467;28;20935;-59
2021/08/13 03:57:51;;;;;;;10.50;9.50;;;20.00;1.00;;;;;;5083717;28;20191;-59
2021/08/13 04:00:17;;;;;;;10.37;9.47;;;19.90;1.00;;;;;;5085875;28;20269;-58
2021/08/13 04:02:42;;;;;;;11.93;10.30;;;19.90;1.00;;;;;;5084419;28;20433;-59
2021/08/13 04:05:09;;;;;;;11.30;10.20;;;19.90;1.00;;;;;;5086946;28;20188;-60
2021/08/13 04:07:34;;;;;;;10.90;9.90;;;19.90;1.00;;;;;;5087013;28;20193;-57
2021/08/13 04:10:00;;;;;;;10.80;9.70;;;19.80;1.00;;;;;;5079532;28;20471;-59
2021/08/13 04:12:26;;;;;;;13.30;9.30;;;19.80;1.00;;;;;;5088444;28;20652;-57
2021/08/13 04:14:52;;;;;;;10.40;9.40;;;19.80;1.00;;;;;;5081955;28;20180;-57
2021/08/13 04:17:17;;;;;;;10.57;9.60;;;19.90;1.00;;;;;;5074139;28;20227;-57
2021/08/13 04:19:43;;;;;;;9.20;8.27;;;19.80;1.00;;;;;;5079269;28;20910;-57
2021/08/13 04:22:08;;;;;;;10.33;9.33;;;20.10;1.00;;;;;;5085220;28;20213;-57
2021/08/13 04:24:34;;;;;;;10.57;9.60;;;20.00;1.00;;;;;;5079571;28;20199;-57
2021/08/13 04:27:01;;;;;;;10.40;9.40;;;20.00;1.00;;;;;;5084604;28;20186;-57
2021/08/13 04:29:27;;;;;;;10.80;9.87;;;20.10;1.00;;;;;;5087648;28;20237;-57
2021/08/13 04:31:52;;;;;;;10.50;9.43;;;20.10;1.00;;;;;;5089672;28;20436;-59
2021/08/13 04:34:18;;;;;;;10.73;9.73;;;20.00;1.00;;;;;;5089401;28;20183;-56
2021/08/13 04:36:44;;;;;;;10.57;9.57;;;20.30;1.00;;;;;;5087602;28;20261;-59
2021/08/13 04:39:10;;;;;;;10.77;9.67;;;20.40;1.00;;;;;;5090042;28;20190;-58
2021/08/13 04:41:35;;;;;;;16.23;10.60;;;20.40;1.00;;;;;;5079739;28;20647;-59
2021/08/13 04:44:01;;;;;;;10.33;9.37;;;20.50;1.00;;;;;;5089956;28;20507;-58
2021/08/13 04:46:27;;;;;;;10.30;9.43;;;20.50;1.00;;;;;;5085954;28;20210;-59
2021/08/13 04:48:52;;;;;;;10.40;9.40;;;20.60;1.00;;;;;;5076592;28;20511;-59
2021/08/13 04:51:18;;;;;;;11.13;9.73;;;20.60;1.00;;;;;;5081844;28;20235;-57
2021/08/13 04:53:43;;;;;;;8.90;8.10;;;20.50;1.00;;;;;;5090762;28;20183;-59
2021/08/13 04:56:09;;;;;;;10.13;9.13;;;20.50;1.00;;;;;;5078130;28;20197;-58
2021/08/13 04:58:34;;;;;;;10.67;8.97;;;20.50;1.00;;;;;;5080534;28;20182;-57
2021/08/13 05:01:00;;;;;;;10.27;9.30;;;20.40;1.00;;;;;;5085659;28;20551;-57
2021/08/13 05:03:27;;;;;;;12.33;9.93;;;20.40;1.00;;;;;;5069366;28;20285;-56
2021/08/13 05:05:52;;;;;;;15.87;8.87;;;20.40;1.00;;;;;;5073307;28;20642;-59
2021/08/13 05:08:18;;;;;;;10.03;9.03;;;20.40;1.00;;;;;;5088568;28;20524;-58
2021/08/13 05:10:44;;;;;;;9.70;8.77;;;20.40;1.00;;;;;;5093033;28;20256;-57
2021/08/13 05:13:09;;;;;;;10.70;9.70;;;20.30;1.00;;;;;;5092894;28;20255;-58
2021/08/13 05:15:35;;;;;;;14.67;10.27;;;20.40;1.00;;;;;;5087055;28;20178;-58
2021/08/13 05:18:00;;;;;;;10.77;9.77;;;20.40;1.00;;;;;;5094395;28;20175;-58
2021/08/13 05:20:26;;;;;;;11.60;10.07;;;20.40;1.00;;;;;;5092305;28;20183;-58
2021/08/13 05:22:51;;;;;;;11.27;10.03;;;20.40;1.00;;;;;;5083836;28;20532;-58
2021/08/13 05:25:17;;;;;;;10.60;9.50;;;22.10;1.00;;;;;;5088873;28;20183;-58
2021/08/13 05:27:43;;;;;;;10.67;9.60;;;20.60;1.00;;;;;;5094075;28;20179;-57
2021/08/13 05:30:10;;;;;;;9.97;8.97;;;20.70;1.00;;;;;;5085127;28;20331;-57
2021/08/13 05:32:40;;;;;;;10.97;9.70;;;20.80;1.00;;;;;;5093144;28;20658;-58
2021/08/13 05:35:07;;;;;;;9.83;8.80;;;21.10;1.00;;;;;;5077688;28;20502;-58
2021/08/13 05:37:32;;;;;;;12.80;8.93;;;21.20;1.00;;;;;;5093899;28;20925;-58
2021/08/13 05:39:58;;;;;;;11.43;9.73;;;21.40;1.00;;;;;;5089540;28;20436;-58
2021/08/13 05:42:23;;;;;;;10.67;9.60;;;21.50;1.00;;;;;;5082954;28;20187;-57
2021/08/13 05:44:49;;;;;;;9.80;8.80;;;21.40;1.00;;;;;;5093553;28;20207;-59
2021/08/13 05:47:14;;;;;;;11.07;9.30;;;21.40;1.00;;;;;;5093929;28;20178;-59
2021/08/13 05:49:40;;;;;;;9.70;8.80;;;21.20;1.00;;;;;;5093515;28;20211;-60
2021/08/13 05:52:05;;;;;;;9.77;8.87;;;21.10;1.00;;;;;;5084784;28;20194;-60
2021/08/13 05:54:31;;;;;;;9.27;8.37;;;21.00;1.00;;;;;;5086166;28;20200;-59
2021/08/13 05:56:57;;;;;;;10.57;9.10;;;21.00;1.00;;;;;;5086604;28;20183;-60
2021/08/13 05:59:23;;;;;;;9.03;8.23;;;21.00;1.00;;;;;;5093007;28;20194;-59
2021/08/13 06:01:48;;;;;;;9.53;8.70;;;21.20;1.00;;;;;;5078721;28;20456;-60
2021/08/13 06:04:14;;;;;;;11.90;8.57;;;21.40;1.00;;;;;;5086391;28;20660;-59
2021/08/13 06:06:42;;;;;;;10.30;8.23;;;21.50;1.00;;;;;;5090577;28;20316;-59
2021/08/13 06:09:08;;;;;;;8.47;7.77;;;21.80;1.00;;;;;;5079379;28;20522;-59
2021/08/13 06:11:33;;;;;;;9.17;8.27;;;22.70;1.00;;;;;;5081638;28;20444;-58
2021/08/13 06:13:59;;;;;;;8.60;7.70;;;22.10;1.00;;;;;;5091295;28;20632;-58
2021/08/13 06:16:24;;;;;;;8.27;7.40;;;22.10;1.00;;;;;;5082186;28;20275;-59
2021/08/13 06:18:50;;;;;;;8.53;7.60;;;22.30;1.00;;;;;;5089867;28;20183;-60
2021/08/13 06:21:16;;;;;;;10.67;8.00;;;22.50;1.00;;;;;;5077465;28;20529;-58
2021/08/13 06:23:41;;;;;;;8.13;7.40;;;22.50;1.00;;;;;;5084525;28;20183;-59
2021/08/13 06:26:11;;;;;;;8.10;7.30;;;22.70;1.00;;;;;;5092935;28;20190;-60
2021/08/13 06:28:37;;;;;;;8.40;7.60;;;22.90;1.00;;;;;;5089831;28;20248;-58
2021/08/13 06:31:03;;;;;;;10.10;8.17;;;23.00;1.00;;;;;;5091376;28;20443;-58
2021/08/13 06:33:29;;;;;;;8.20;7.53;;;23.20;1.00;;;;;;5081024;28;20528;-58
2021/08/13 06:35:54;;;;;;;14.40;7.53;;;23.20;1.00;;;;;;5086604;28;20187;-60
2021/08/13 06:38:20;;;;;;;9.13;7.70;;;23.40;1.00;;;;;;5089211;28;20175;-59
2021/08/13 06:40:45;;;;;;;11.83;7.33;;;23.40;1.00;;;;;;5092699;28;20244;-59
2021/08/13 06:43:11;;;;;;;9.20;7.20;;;23.60;1.00;;;;;;5087843;28;20180;-57
2021/08/13 06:45:36;;;;;;;13.67;8.37;;;23.60;1.00;;;;;;5078238;28;20172;-59
2021/08/13 06:48:02;;;;;;;8.27;7.47;;;23.80;1.00;;;;;;5080789;28;20183;-58
2021/08/13 06:50:27;;;;;;;7.77;7.07;;;23.80;1.00;;;;;;5082605;28;20191;-56
2021/08/13 06:52:53;;;;;;;10.67;7.60;;;23.90;1.00;;;;;;5086375;28;20208;-57
2021/08/13 06:55:19;;;;;;;8.30;6.87;;;24.00;1.00;;;;;;5087365;28;20183;-57
2021/08/13 06:57:44;;;;;;;7.53;6.83;;;24.20;1.00;;;;;;5075997;28;20579;-57
2021/08/13 07:00:13;;;;;;;8.53;7.40;;;24.30;1.00;;;;;;5092546;28;20186;-56
2021/08/13 07:02:40;;;;;;;7.73;6.87;;;24.50;1.00;;;;;;5092468;28;20198;-58
2021/08/13 07:05:06;;;;;;;7.03;6.33;;;24.50;1.00;;;;;;5089626;28;20468;-58
2021/08/13 07:07:32;;;;;;;9.53;6.50;;;24.60;1.00;;;;;;5080811;28;20965;-58
2021/08/13 07:09:58;;;;;;;9.00;7.27;;;24.70;1.00;;;;;;5077092;28;20452;-57
2021/08/13 07:12:24;;;;;;;7.47;6.50;;;24.90;1.00;;;;;;5074015;28;20312;-57
2021/08/13 07:14:49;;;;;;;6.83;6.17;;;25.00;1.00;;;;;;5080736;28;20416;-57
2021/08/13 07:17:15;;;;;;;7.60;6.53;;;25.10;1.00;;;;;;5074785;28;20644;-56
2021/08/13 07:19:40;;;;;;;8.17;7.47;;;25.10;1.00;;;;;;5071906;28;20258;-57
2021/08/13 07:22:06;;;;;;;7.13;6.43;;;25.20;1.00;;;;;;5076729;28;20187;-57
2021/08/13 07:24:32;;;;;;;7.67;6.70;;;25.30;1.00;;;;;;5072085;28;20180;-59
2021/08/13 07:26:58;;;;;;;7.10;6.40;;;25.30;1.00;;;;;;5088704;28;20261;-58
2021/08/13 07:29:24;;;;;;;7.13;6.43;;;25.30;1.00;;;;;;5071787;28;20202;-56
2021/08/13 07:31:49;;;;;;;7.57;6.87;;;25.40;1.00;;;;;;5071813;28;20430;-59
2021/08/13 07:34:15;;;;;;;7.73;6.70;;;25.60;1.00;;;;;;5071974;28;20187;-58
2021/08/13 07:36:40;;;;;;;7.47;6.50;;;25.80;1.00;;;;;;5086246;28;20202;-59
2021/08/13 07:39:06;;;;;;;7.57;6.60;;;26.00;1.00;;;;;;5092159;28;20241;-57
2021/08/13 07:41:32;;;;;;;7.10;6.50;;;26.20;1.00;;;;;;5078945;28;20237;-58
2021/08/13 07:43:57;;;;;;;6.90;6.20;;;26.30;1.00;;;;;;5071703;28;20256;-57
2021/08/13 07:46:24;;;;;;;6.83;6.23;;;26.40;1.00;;;;;;5071240;28;20183;-60
2021/08/13 07:48:49;;;;;;;7.50;6.80;;;26.50;1.00;;;;;;5071657;28;20755;-58
2021/08/13 07:51:15;;;;;;;7.70;6.97;;;26.60;1.00;;;;;;5071657;28;20501;-57
2021/08/13 07:53:40;;;;;;;7.10;6.43;;;26.70;1.00;;;;;;5074881;28;20183;-57
2021/08/13 07:56:06;;;;;;;9.00;6.70;;;27.00;1.00;;;;;;5071439;28;20215;-58
2021/08/13 07:58:32;;;;;;;8.43;6.20;;;27.00;1.00;;;;;;5071345;28;20536;-58
2021/08/13 08:00:57;;;;;;;8.27;7.10;;;27.00;1.00;;;;;;5074443;28;20190;-57
2021/08/13 08:03:23;;;;;;;8.60;5.77;;;27.00;1.00;;;;;;5088110;28;20194;-58
2021/08/13 08:05:48;;;;;;;7.20;6.60;;;27.00;1.00;;;;;;5071122;28;20266;-58
2021/08/13 08:08:14;;;;;;;6.10;5.60;;;27.20;1.00;;;;;;5071378;28;20179;-57
2021/08/13 08:10:45;;;;;;;7.40;6.70;;;27.50;1.00;;;;;;5071021;28;20599;-58
2021/08/13 08:13:11;;;;;;;7.00;5.90;;;27.70;1.00;;;;;;5071383;28;20242;-58
2021/08/13 08:15:37;;;;;;;7.07;6.37;;;27.70;1.00;;;;;;5070805;28;20950;-58
2021/08/13 08:18:02;;;;;;;6.80;5.70;;;27.80;1.00;;;;;;5075285;28;20433;-59
2021/08/13 08:20:28;;;;;;;8.57;6.30;;;27.90;1.00;;;;;;5091270;28;20175;-57
2021/08/13 08:22:55;;;;;;;7.53;6.20;;;28.10;1.00;;;;;;5091191;28;20208;-58
2021/08/13 08:25:21;;;;;;;7.10;6.40;;;28.40;1.00;;;;;;5074317;28;20864;-57
2021/08/13 08:27:47;;;;;;;8.40;6.30;;;28.20;1.00;;;;;;5070914;28;20211;-58
2021/08/13 08:30:13;;;;;;;7.33;6.17;;;28.20;1.00;;;;;;5071127;28;20481;-58
2021/08/13 08:32:38;;;;;;;7.27;6.57;;;28.30;1.00;;;;;;5074483;28;20664;-58
2021/08/13 08:35:04;;;;;;;7.10;6.40;;;28.40;1.00;;;;;;5091037;28;20428;-59
2021/08/13 08:37:30;;;;;;;6.50;6.00;;;28.60;1.00;;;;;;5091253;28;20231;-58
2021/08/13 08:39:55;;;;;;;8.37;6.50;;;28.60;1.00;;;;;;5090477;28;20437;-58
2021/08/13 08:42:21;;;;;;;6.80;6.20;;;28.80;1.00;;;;;;5091022;28;20186;-57
2021/08/13 08:44:47;;;;;;;7.20;6.57;;;28.80;1.00;;;;;;5090077;28;20189;-57
2021/08/13 08:47:19;;;;;;;6.93;6.17;;;28.90;1.00;;;;;;5091164;28;20510;-58
2021/08/13 08:49:47;;;;;;;8.90;6.20;;;29.10;1.00;;;;;;5089547;28;20959;-57
2021/08/13 08:52:13;;;;;;;7.97;7.13;;;29.20;1.00;;;;;;5090980;28;20489;-58
2021/08/13 08:54:41;;;;;;;8.70;6.10;;;29.50;1.00;;;;;;5071562;28;20433;-58
2021/08/13 08:57:07;;;;;;;6.83;6.23;;;29.60;1.00;;;;;;5075855;28;20440;-58
2021/08/13 08:59:33;;;;;;;7.47;6.70;;;29.50;1.00;;;;;;5090871;28;20432;-57
2021/08/13 09:01:59;;;;;;;6.93;6.33;;;29.70;1.00;;;;;;5082398;28;20187;-59
2021/08/13 09:04:25;;;;;;;6.90;6.20;;;29.80;1.00;;;;;;5070711;28;20474;-58
2021/08/13 09:06:51;;;;;;;6.37;5.80;;;30.00;1.00;;;;;;5069040;28;20433;-57
2021/08/13 09:09:17;;;;;;;6.50;5.90;;;30.20;1.00;;;;;;5070390;28;21054;-58
2021/08/13 09:11:45;;;;;;;7.53;6.60;;;30.30;1.00;;;;;;5070505;28;20202;-58
2021/08/13 09:14:12;;;;;;;7.50;6.80;;;30.30;1.00;;;;;;5070441;28;20518;-58
2021/08/13 09:16:40;;;;;;;7.80;6.23;;;30.10;1.00;;;;;;5070299;28;20539;-58
2021/08/13 09:19:08;;;;;;;7.17;6.57;;;30.20;1.00;;;;;;5068962;28;20524;-58
2021/08/13 09:21:35;;;;;;;6.27;5.73;;;30.20;1.00;;;;;;5074881;28;20829;-57
2021/08/13 09:24:11;;;;;;;7.20;6.37;;;30.30;1.00;;;;;;5070383;28;20433;-58
2021/08/13 09:26:42;;;;;;;7.10;6.40;;;30.50;1.00;;;;;;5087120;28;20436;-57
2021/08/13 09:29:18;;;;;;;7.60;6.90;;;30.60;1.00;;;;;;5086698;28;21017;-57
2021/08/13 09:31:49;;;;;;;7.87;6.40;;;30.50;1.00;;;;;;5087186;28;20429;-57
2021/08/13 09:34:16;;;;;;;8.07;7.27;;;30.30;1.00;;;;;;5090259;28;20444;-57
2021/08/13 09:37:02;;;;;;;7.10;6.50;;;30.40;1.00;;;;;;5090476;28;20550;-57
2021/08/13 09:39:36;;;;;;;7.27;6.40;;;30.50;1.00;;;;;;5089692;28;20436;-57
2021/08/13 09:42:08;;;;;;;6.90;6.40;;;30.60;1.00;;;;;;5083559;28;20832;-58
2021/08/13 09:44:35;;;;;;;9.20;5.90;;;30.70;1.00;;;;;;5090236;28;20447;-58
2021/08/13 09:47:04;;;;;;;12.80;7.27;;;31.20;1.00;;;;;;5090035;28;20474;-57
2021/08/13 09:49:35;;;;;;;7.20;6.50;;;31.40;1.00;;;;;;5089760;28;20435;-57
2021/08/13 09:52:15;;;;;;;7.80;7.10;;;31.10;1.00;;;;;;5078774;28;20433;-58
2021/08/13 09:54:42;;;;;;;7.50;6.90;;;31.40;1.00;;;;;;5086612;28;20431;-57
2021/08/13 09:57:09;;;;;;;7.20;6.50;;;31.50;1.00;;;;;;5093926;28;20772;-57
2021/08/13 09:59:36;;;;;;;8.40;7.50;;;31.40;1.00;;;;;;5079925;28;20437;-58
2021/08/13 10:02:12;;;;;;;7.57;6.87;;;31.40;1.00;;;;;;5093893;28;20444;-59
2021/08/13 10:04:38;;;;;;;7.30;6.60;;;31.60;1.00;;;;;;5090232;28;20440;-57
2021/08/13 10:07:04;;;;;;;7.17;6.57;;;31.80;1.00;;;;;;5073610;28;20483;-57
2021/08/13 10:09:31;;;;;;;10.10;7.23;;;31.40;1.00;;;;;;5073174;28;20881;-59
2021/08/13 10:12:07;;;;;;;7.57;6.87;;;31.30;1.00;;;;;;5090770;28;20440;-58
2021/08/13 10:14:43;;;;;;;7.00;6.30;;;31.20;1.00;;;;;;5093785;28;20464;-57
2021/08/13 10:17:13;;;;;;;7.43;6.73;;;31.20;1.00;;;;;;5093432;28;20500;-58
2021/08/13 10:19:40;;;;;;;8.10;7.27;;;31.10;1.00;;;;;;5093268;28;20476;-58
2021/08/13 10:22:06;;;;;;;7.70;7.00;;;31.30;1.00;;;;;;5083829;28;20925;-57
2021/08/13 10:24:32;;;;;;;7.73;6.43;;;31.60;1.00;;;;;;5086145;28;20437;-57
2021/08/13 10:26:59;;;;;;;7.10;6.50;;;31.70;1.00;;;;;;5093677;28;20206;-58
2021/08/13 10:29:26;;;;;;;7.83;7.13;;;31.80;1.00;;;;;;5092912;28;20464;-57
2021/08/13 10:31:51;;;;;;;7.73;7.03;;;31.80;1.00;;;;;;5093300;28;20408;-58
2021/08/13 10:34:17;;;;;;;7.97;7.27;;;31.90;1.00;;;;;;5076575;28;20442;-58
2021/08/13 10:36:45;;;;;;;8.93;7.87;;;32.00;1.00;;;;;;5072853;28;20202;-58
2021/08/13 10:39:15;;;;;;;9.67;7.13;;;32.20;1.00;;;;;;5079626;28;20277;-57
2021/08/13 10:41:44;;;;;;;8.30;7.50;;;32.20;1.00;;;;;;5093093;28;20941;-59
2021/08/13 10:44:12;;;;;;;7.80;7.10;;;32.10;1.00;;;;;;5092918;28;20469;-57
2021/08/13 10:46:39;;;;;;;7.80;7.10;;;31.70;1.00;;;;;;5080046;28;20504;-59
2021/08/13 10:49:08;;;;;;;9.63;8.13;;;32.00;1.00;;;;;;5077922;28;20531;-58
2021/08/13 10:51:34;;;;;;;8.50;7.67;;;31.90;1.00;;;;;;5091690;28;20486;-58
2021/08/13 10:54:05;;;;;;;10.33;7.27;;;31.90;1.00;;;;;;5092883;28;20502;-58
2021/08/13 10:56:44;;;;;;;7.70;6.80;;;31.90;1.00;;;;;;5092587;28;20655;-57
2021/08/13 10:59:10;;;;;;;8.20;7.40;;;32.00;1.00;;;;;;5092741;28;20562;-59
2021/08/13 11:01:44;;;;;;;8.13;7.33;;;32.20;1.00;;;;;;5090363;28;20436;-58
2021/08/13 11:04:11;;;;;;;8.40;7.47;;;32.40;1.00;;;;;;5091719;28;20428;-57
2021/08/13 11:06:37;;;;;;;9.07;8.17;;;32.30;1.00;;;;;;5091715;28;20942;-59
2021/08/13 11:09:06;;;;;;;9.83;8.93;;;32.20;1.00;;;;;;5092684;28;20452;-57
2021/08/13 11:11:53;;;;;;;9.17;8.37;;;32.30;1.00;;;;;;5092417;28;20178;-57
2021/08/13 11:14:49;;;;;;;10.10;8.40;;;32.20;1.00;;;;;;5092141;28;20483;-57
2021/08/13 11:17:42;;;;;;;15.93;8.30;;;32.10;1.00;;;;;;5092341;28;21101;-58
2021/08/13 11:20:13;;;;;;;10.00;9.00;;;32.10;1.00;;;;;;5092524;28;20430;-59
2021/08/13 11:22:40;;;;;;;9.87;8.87;;;32.20;1.00;;;;;;5079817;28;20442;-58
2021/08/13 11:25:11;;;;;;;9.23;8.43;;;32.30;1.00;;;;;;5072118;28;20496;-57
2021/08/13 11:27:37;;;;;;;9.80;9.00;;;32.20;1.00;;;;;;5073300;28;20969;-58
2021/08/13 11:30:05;;;;;;;9.90;8.97;;;32.20;1.00;;;;;;5076153;28;20457;-58
2021/08/13 11:32:35;;;;;;;10.00;8.67;;;31.90;1.00;;;;;;5085069;28;20444;-58
2021/08/13 11:35:06;;;;;;;9.60;8.80;;;31.80;1.00;;;;;;5071976;28;20808;-57
2021/08/13 11:37:37;;;;;;;10.93;8.80;;;32.00;1.00;;;;;;5072377;28;20408;-57
2021/08/13 11:40:06;;;;;;;9.77;8.87;;;32.00;1.00;;;;;;5071608;28;20473;-58
2021/08/13 11:42:33;;;;;;;8.63;7.93;;;32.30;1.00;;;;;;5071776;28;20444;-60
2021/08/13 11:45:00;;;;;;;9.50;8.60;;;32.40;1.00;;;;;;5071840;28;20991;-58
2021/08/13 11:47:26;;;;;;;10.70;9.80;;;32.50;1.00;;;;;;5087895;28;20436;-58
2021/08/13 11:49:52;;;;;;;17.57;10.07;;;31.90;1.00;;;;;;5087028;28;20465;-57
2021/08/13 11:52:23;;;;;;;11.70;10.60;;;31.80;1.00;;;;;;5071577;28;20448;-58
2021/08/13 11:54:49;;;;;;;12.77;11.60;;;32.00;1.00;;;;;;5090535;28;20262;-58
2021/08/13 11:57:20;;;;;;;12.80;11.63;;;31.90;1.00;;;;;;5091566;28;20445;-58
2021/08/13 11:59:46;;;;;;;13.57;11.93;;;31.70;1.00;;;;;;5091717;28;20520;-59
2021/08/13 12:02:12;;;;;;;12.67;11.57;;;31.70;1.00;;;;;;5084886;28;20484;-59
2021/08/13 12:04:38;;;;;;;13.13;11.93;;;31.60;1.00;;;;;;5074165;28;20416;-58
2021/08/13 12:07:09;;;;;;;12.20;11.00;;;31.70;1.00;;;;;;5071326;28;20768;-58
2021/08/13 12:09:42;;;;;;;12.17;11.07;;;31.80;1.00;;;;;;5071502;28;20207;-59
2021/08/13 12:12:13;;;;;;;11.13;10.17;;;32.10;1.00;;;;;;5071153;28;20938;-57
2021/08/13 12:14:50;;;;;;;11.13;10.00;;;32.10;1.00;;;;;;5071161;28;20437;-58
2021/08/13 12:17:16;;;;;;;11.97;10.97;;;32.00;1.00;;;;;;5088520;28;20541;-58
2021/08/13 12:19:42;;;;;;;15.13;11.67;;;32.20;1.00;;;;;;5091228;28;20411;-58
2021/08/13 12:22:08;;;;;;;13.57;11.97;;;32.30;1.00;;;;;;5079518;28;20198;-58
2021/08/13 12:24:40;;;;;;;11.37;10.27;;;32.20;1.00;;;;;;5078083;28;20190;-58
2021/08/13 12:27:11;;;;;;;11.23;10.13;;;32.20;1.00;;;;;;5091013;28;20494;-57
2021/08/13 12:29:39;;;;;;;11.87;10.67;;;32.40;1.00;;;;;;5091266;28;20943;-59
2021/08/13 12:32:07;;;;;;;12.30;11.20;;;32.40;1.00;;;;;;5091286;28;20458;-57
2021/08/13 12:34:34;;;;;;;12.63;11.43;;;32.10;1.00;;;;;;5090603;28;20929;-57
2021/08/13 12:37:12;;;;;;;12.30;11.10;;;32.20;1.00;;;;;;5091116;28;20446;-57
2021/08/13 12:39:40;;;;;;;12.30;10.40;;;32.40;1.00;;;;;;5070926;28;20418;-58
2021/08/13 12:42:08;;;;;;;10.13;9.17;;;32.30;1.00;;;;;;5081598;28;20445;-58
2021/08/13 12:44:37;;;;;;;10.40;9.43;;;32.40;1.00;;;;;;5076817;28;20420;-58
2021/08/13 12:47:04;;;;;;;10.17;9.27;;;32.50;1.00;;;;;;5071071;28;20423;-58
2021/08/13 12:49:30;;;;;;;9.80;8.90;;;32.40;1.00;;;;;;5070818;28;20492;-58
2021/08/13 12:52:12;;;;;;;10.80;9.90;;;32.40;1.00;;;;;;5069349;28;20969;-59